sensor_id;sensor_type;location;lat;lon;timestamp;P1;durP1;ratioP1;P2;durP2;ratioP2
12990;SDS011;6560;57.692;11.958;2023-05-29T00:00:15;15.77;;;3.73;;
12990;SDS011;6560;57.692;11.958;2023-05-29T00:02:44;19.70;;;4.07;;
12990;SDS011;6560;57.692;11.958;2023-05-29T00:05:16;14.67;;;3.50;;
12990;SDS011;6560;57.692;11.958;2023-05-29T00:07:42;15.23;;;4.17;;
12990;SDS011;6560;57.692;11.958;2023-05-29T00:10:09;10.27;;;3.47;;
12990;SDS011;6560;57.692;11.958;2023-05-29T00:12:35;15.73;;;4.20;;
12990;SDS011;6560;57.692;11.958;2023-05-29T00:15:02;12.83;;;3.37;;
12990;SDS011;6560;57.692;11.958;2023-05-29T00:17:30;10.97;;;3.90;;
12990;SDS011;6560;57.692;11.958;2023-05-29T00:20:00;11.83;;;4.00;;
12990;SDS011;6560;57.692;11.958;2023-05-29T00:22:33;12.60;;;3.27;;
12990;SDS011;6560;57.692;11.958;2023-05-29T00:25:02;11.57;;;3.40;;
12990;SDS011;6560;57.692;11.958;2023-05-29T00:27:29;15.30;;;4.27;;
12990;SDS011;6560;57.692;11.958;2023-05-29T00:29:54;13.33;;;3.23;;
12990;SDS011;6560;57.692;11.958;2023-05-29T00:32:20;8.87;;;3.27;;
12990;SDS011;6560;57.692;11.958;2023-05-29T00:34:45;14.03;;;3.07;;
12990;SDS011;6560;57.692;11.958;2023-05-29T00:37:11;11.87;;;3.23;;
12990;SDS011;6560;57.692;11.958;2023-05-29T00:39:36;9.13;;;2.57;;
12990;SDS011;6560;57.692;11.958;2023-05-29T00:42:02;11.20;;;3.30;;
12990;SDS011;6560;57.692;11.958;2023-05-29T00:44:27;13.27;;;3.67;;
12990;SDS011;6560;57.692;11.958;2023-05-29T00:46:53;12.50;;;3.27;;
12990;SDS011;6560;57.692;11.958;2023-05-29T00:49:18;8.70;;;2.50;;
12990;SDS011;6560;57.692;11.958;2023-05-29T00:51:46;6.80;;;2.43;;
12990;SDS011;6560;57.692;11.958;2023-05-29T00:54:14;9.47;;;2.93;;
12990;SDS011;6560;57.692;11.958;2023-05-29T00:56:45;6.73;;;2.33;;
12990;SDS011;6560;57.692;11.958;2023-05-29T00:59:12;14.17;;;2.40;;
12990;SDS011;6560;57.692;11.958;2023-05-29T01:01:38;7.93;;;3.00;;
12990;SDS011;6560;57.692;11.958;2023-05-29T01:04:05;8.87;;;3.13;;
12990;SDS011;6560;57.692;11.958;2023-05-29T01:06:34;9.03;;;3.27;;
12990;SDS011;6560;57.692;11.958;2023-05-29T01:09:00;15.00;;;3.70;;
12990;SDS011;6560;57.692;11.958;2023-05-29T01:14:13;10.33;;;2.67;;
12990;SDS011;6560;57.692;11.958;2023-05-29T01:16:51;7.60;;;2.90;;
12990;SDS011;6560;57.692;11.958;2023-05-29T01:22:34;5.70;;;2.37;;
12990;SDS011;6560;57.692;11.958;2023-05-29T01:28:12;11.47;;;2.40;;
12990;SDS011;6560;57.692;11.958;2023-05-29T01:30:40;10.57;;;2.37;;
12990;SDS011;6560;57.692;11.958;2023-05-29T01:33:05;6.00;;;1.70;;
12990;SDS011;6560;57.692;11.958;2023-05-29T01:35:32;6.53;;;2.50;;
12990;SDS011;6560;57.692;11.958;2023-05-29T01:37:57;6.03;;;2.20;;
12990;SDS011;6560;57.692;11.958;2023-05-29T01:40:23;7.83;;;2.63;;
12990;SDS011;6560;57.692;11.958;2023-05-29T01:42:49;4.50;;;1.70;;
12990;SDS011;6560;57.692;11.958;2023-05-29T01:45:15;7.50;;;2.20;;
12990;SDS011;6560;57.692;11.958;2023-05-29T01:47:42;12.03;;;2.40;;
12990;SDS011;6560;57.692;11.958;2023-05-29T01:50:08;9.63;;;2.27;;
12990;SDS011;6560;57.692;11.958;2023-05-29T01:52:34;4.67;;;1.73;;
12990;SDS011;6560;57.692;11.958;2023-05-29T01:55:00;4.30;;;1.77;;
12990;SDS011;6560;57.692;11.958;2023-05-29T01:57:25;7.10;;;1.80;;
12990;SDS011;6560;57.692;11.958;2023-05-29T01:59:51;4.13;;;1.90;;
12990;SDS011;6560;57.692;11.958;2023-05-29T02:02:17;3.33;;;1.70;;
12990;SDS011;6560;57.692;11.958;2023-05-29T02:04:43;8.90;;;1.67;;
12990;SDS011;6560;57.692;11.958;2023-05-29T02:07:08;8.57;;;2.77;;
12990;SDS011;6560;57.692;11.958;2023-05-29T02:09:34;6.77;;;2.60;;
12990;SDS011;6560;57.692;11.958;2023-05-29T02:12:01;6.60;;;1.90;;
12990;SDS011;6560;57.692;11.958;2023-05-29T02:14:27;7.00;;;2.20;;
12990;SDS011;6560;57.692;11.958;2023-05-29T02:16:52;5.67;;;2.07;;
12990;SDS011;6560;57.692;11.958;2023-05-29T02:19:18;4.93;;;1.60;;
12990;SDS011;6560;57.692;11.958;2023-05-29T02:21:44;5.90;;;1.70;;
12990;SDS011;6560;57.692;11.958;2023-05-29T02:24:10;5.93;;;2.07;;
12990;SDS011;6560;57.692;11.958;2023-05-29T02:26:35;3.37;;;1.80;;
12990;SDS011;6560;57.692;11.958;2023-05-29T02:29:04;5.10;;;1.90;;
12990;SDS011;6560;57.692;11.958;2023-05-29T02:31:32;5.17;;;1.87;;
12990;SDS011;6560;57.692;11.958;2023-05-29T02:33:57;6.33;;;2.30;;
12990;SDS011;6560;57.692;11.958;2023-05-29T02:36:23;5.77;;;2.00;;
12990;SDS011;6560;57.692;11.958;2023-05-29T02:38:48;3.60;;;1.60;;
12990;SDS011;6560;57.692;11.958;2023-05-29T02:41:14;3.87;;;1.83;;
12990;SDS011;6560;57.692;11.958;2023-05-29T02:43:40;4.03;;;1.70;;
12990;SDS011;6560;57.692;11.958;2023-05-29T02:46:05;3.73;;;1.23;;
12990;SDS011;6560;57.692;11.958;2023-05-29T02:48:30;4.43;;;2.07;;
12990;SDS011;6560;57.692;11.958;2023-05-29T02:50:56;5.60;;;1.93;;
12990;SDS011;6560;57.692;11.958;2023-05-29T02:53:21;5.17;;;2.43;;
12990;SDS011;6560;57.692;11.958;2023-05-29T02:55:48;3.13;;;1.60;;
12990;SDS011;6560;57.692;11.958;2023-05-29T02:58:14;8.70;;;1.80;;
12990;SDS011;6560;57.692;11.958;2023-05-29T03:00:46;7.27;;;2.30;;
12990;SDS011;6560;57.692;11.958;2023-05-29T03:03:12;5.90;;;1.80;;
12990;SDS011;6560;57.692;11.958;2023-05-29T03:05:38;2.50;;;1.90;;
12990;SDS011;6560;57.692;11.958;2023-05-29T03:08:04;5.77;;;2.10;;
12990;SDS011;6560;57.692;11.958;2023-05-29T03:10:29;3.57;;;1.80;;
12990;SDS011;6560;57.692;11.958;2023-05-29T03:12:55;2.77;;;1.33;;
12990;SDS011;6560;57.692;11.958;2023-05-29T03:15:20;3.77;;;1.50;;
12990;SDS011;6560;57.692;11.958;2023-05-29T03:17:46;1.73;;;1.00;;
12990;SDS011;6560;57.692;11.958;2023-05-29T03:20:12;2.93;;;1.47;;
12990;SDS011;6560;57.692;11.958;2023-05-29T03:22:38;4.00;;;1.70;;
12990;SDS011;6560;57.692;11.958;2023-05-29T03:25:04;3.90;;;1.60;;
12990;SDS011;6560;57.692;11.958;2023-05-29T03:27:30;2.37;;;1.50;;
12990;SDS011;6560;57.692;11.958;2023-05-29T03:29:56;3.10;;;1.60;;
12990;SDS011;6560;57.692;11.958;2023-05-29T03:32:23;6.10;;;1.63;;
12990;SDS011;6560;57.692;11.958;2023-05-29T03:34:49;3.40;;;1.60;;
12990;SDS011;6560;57.692;11.958;2023-05-29T03:37:14;2.93;;;1.53;;
12990;SDS011;6560;57.692;11.958;2023-05-29T03:39:40;3.93;;;1.43;;
12990;SDS011;6560;57.692;11.958;2023-05-29T03:42:06;3.22;;;1.05;;
12990;SDS011;6560;57.692;11.958;2023-05-29T03:44:31;3.58;;;1.40;;
12990;SDS011;6560;57.692;11.958;2023-05-29T03:46:57;4.60;;;1.50;;
12990;SDS011;6560;57.692;11.958;2023-05-29T03:49:22;3.88;;;1.50;;
12990;SDS011;6560;57.692;11.958;2023-05-29T03:51:48;3.45;;;1.60;;
12990;SDS011;6560;57.692;11.958;2023-05-29T03:54:15;4.32;;;1.50;;
12990;SDS011;6560;57.692;11.958;2023-05-29T03:56:40;3.72;;;1.77;;
12990;SDS011;6560;57.692;11.958;2023-05-29T03:59:06;4.50;;;2.35;;
12990;SDS011;6560;57.692;11.958;2023-05-29T04:01:31;7.90;;;2.85;;
12990;SDS011;6560;57.692;11.958;2023-05-29T04:03:57;5.22;;;2.70;;
12990;SDS011;6560;57.692;11.958;2023-05-29T04:06:23;8.07;;;2.78;;
12990;SDS011;6560;57.692;11.958;2023-05-29T04:08:48;5.80;;;2.50;;
12990;SDS011;6560;57.692;11.958;2023-05-29T04:11:15;7.35;;;2.58;;
12990;SDS011;6560;57.692;11.958;2023-05-29T04:13:40;5.43;;;2.50;;
12990;SDS011;6560;57.692;11.958;2023-05-29T04:16:06;5.47;;;2.90;;
12990;SDS011;6560;57.692;11.958;2023-05-29T04:18:32;5.43;;;2.20;;
12990;SDS011;6560;57.692;11.958;2023-05-29T04:20:58;10.80;;;2.63;;
12990;SDS011;6560;57.692;11.958;2023-05-29T04:23:24;5.00;;;2.30;;
12990;SDS011;6560;57.692;11.958;2023-05-29T04:25:49;5.18;;;2.25;;
12990;SDS011;6560;57.692;11.958;2023-05-29T04:28:17;7.35;;;2.50;;
12990;SDS011;6560;57.692;11.958;2023-05-29T04:30:46;5.82;;;2.05;;
12990;SDS011;6560;57.692;11.958;2023-05-29T04:33:12;4.88;;;1.80;;
12990;SDS011;6560;57.692;11.958;2023-05-29T04:35:37;3.78;;;1.85;;
12990;SDS011;6560;57.692;11.958;2023-05-29T04:38:03;5.38;;;1.77;;
12990;SDS011;6560;57.692;11.958;2023-05-29T04:40:30;2.10;;;1.42;;
12990;SDS011;6560;57.692;11.958;2023-05-29T04:42:56;4.60;;;1.73;;
12990;SDS011;6560;57.692;11.958;2023-05-29T04:45:25;4.78;;;1.85;;
12990;SDS011;6560;57.692;11.958;2023-05-29T04:47:51;3.45;;;1.95;;
12990;SDS011;6560;57.692;11.958;2023-05-29T04:50:18;4.95;;;1.98;;
12990;SDS011;6560;57.692;11.958;2023-05-29T04:52:44;4.47;;;1.70;;
12990;SDS011;6560;57.692;11.958;2023-05-29T04:55:09;3.83;;;2.17;;
12990;SDS011;6560;57.692;11.958;2023-05-29T04:57:37;3.20;;;1.58;;
12990;SDS011;6560;57.692;11.958;2023-05-29T05:00:03;6.13;;;1.98;;
12990;SDS011;6560;57.692;11.958;2023-05-29T05:02:33;1.77;;;1.58;;
12990;SDS011;6560;57.692;11.958;2023-05-29T05:04:58;5.78;;;1.55;;
12990;SDS011;6560;57.692;11.958;2023-05-29T05:07:24;3.95;;;1.85;;
12990;SDS011;6560;57.692;11.958;2023-05-29T05:09:50;4.18;;;2.05;;
12990;SDS011;6560;57.692;11.958;2023-05-29T05:12:16;7.82;;;2.05;;
12990;SDS011;6560;57.692;11.958;2023-05-29T05:14:41;4.47;;;2.88;;
12990;SDS011;6560;57.692;11.958;2023-05-29T05:17:07;5.20;;;2.63;;
12990;SDS011;6560;57.692;11.958;2023-05-29T05:19:32;6.75;;;2.55;;
12990;SDS011;6560;57.692;11.958;2023-05-29T05:21:57;4.45;;;1.52;;
12990;SDS011;6560;57.692;11.958;2023-05-29T05:24:23;4.75;;;2.00;;
12990;SDS011;6560;57.692;11.958;2023-05-29T05:26:48;2.95;;;1.65;;
12990;SDS011;6560;57.692;11.958;2023-05-29T05:29:14;2.70;;;1.67;;
12990;SDS011;6560;57.692;11.958;2023-05-29T05:31:40;3.55;;;1.98;;
12990;SDS011;6560;57.692;11.958;2023-05-29T05:34:05;3.70;;;2.03;;
12990;SDS011;6560;57.692;11.958;2023-05-29T05:36:31;4.80;;;1.88;;
12990;SDS011;6560;57.692;11.958;2023-05-29T05:38:57;1.85;;;1.45;;
12990;SDS011;6560;57.692;11.958;2023-05-29T05:41:23;3.22;;;1.40;;
12990;SDS011;6560;57.692;11.958;2023-05-29T05:43:49;2.38;;;1.20;;
12990;SDS011;6560;57.692;11.958;2023-05-29T05:46:15;1.90;;;1.00;;
12990;SDS011;6560;57.692;11.958;2023-05-29T05:48:42;4.43;;;1.10;;
12990;SDS011;6560;57.692;11.958;2023-05-29T05:51:07;1.98;;;1.50;;
12990;SDS011;6560;57.692;11.958;2023-05-29T05:53:33;3.42;;;0.95;;
12990;SDS011;6560;57.692;11.958;2023-05-29T05:55:58;1.92;;;1.30;;
12990;SDS011;6560;57.692;11.958;2023-05-29T05:58:24;2.83;;;1.10;;
12990;SDS011;6560;57.692;11.958;2023-05-29T06:00:49;1.98;;;1.17;;
12990;SDS011;6560;57.692;11.958;2023-05-29T06:03:17;0.90;;;0.80;;
12990;SDS011;6560;57.692;11.958;2023-05-29T06:05:43;2.65;;;1.10;;
12990;SDS011;6560;57.692;11.958;2023-05-29T06:08:08;2.10;;;0.80;;
12990;SDS011;6560;57.692;11.958;2023-05-29T06:10:34;2.42;;;0.90;;
12990;SDS011;6560;57.692;11.958;2023-05-29T06:13:00;1.90;;;0.88;;
12990;SDS011;6560;57.692;11.958;2023-05-29T06:15:26;1.10;;;0.88;;
12990;SDS011;6560;57.692;11.958;2023-05-29T06:17:51;1.08;;;0.95;;
12990;SDS011;6560;57.692;11.958;2023-05-29T06:20:17;0.77;;;0.77;;
12990;SDS011;6560;57.692;11.958;2023-05-29T06:22:43;2.17;;;0.80;;
12990;SDS011;6560;57.692;11.958;2023-05-29T06:25:08;7.65;;;1.20;;
12990;SDS011;6560;57.692;11.958;2023-05-29T06:27:34;2.03;;;0.90;;
12990;SDS011;6560;57.692;11.958;2023-05-29T06:30:00;1.08;;;0.90;;
12990;SDS011;6560;57.692;11.958;2023-05-29T06:32:25;1.45;;;0.80;;
12990;SDS011;6560;57.692;11.958;2023-05-29T06:34:53;1.92;;;1.50;;
12990;SDS011;6560;57.692;11.958;2023-05-29T06:37:18;2.58;;;1.10;;
12990;SDS011;6560;57.692;11.958;2023-05-29T06:39:44;3.95;;;0.95;;
12990;SDS011;6560;57.692;11.958;2023-05-29T06:42:11;1.13;;;0.63;;
12990;SDS011;6560;57.692;11.958;2023-05-29T06:44:37;1.92;;;1.00;;
12990;SDS011;6560;57.692;11.958;2023-05-29T06:47:02;1.77;;;1.00;;
12990;SDS011;6560;57.692;11.958;2023-05-29T06:49:28;1.17;;;0.70;;
12990;SDS011;6560;57.692;11.958;2023-05-29T06:51:53;1.63;;;1.08;;
12990;SDS011;6560;57.692;11.958;2023-05-29T06:54:19;2.00;;;1.15;;
12990;SDS011;6560;57.692;11.958;2023-05-29T06:56:44;2.33;;;1.33;;
12990;SDS011;6560;57.692;11.958;2023-05-29T06:59:10;1.60;;;0.88;;
12990;SDS011;6560;57.692;11.958;2023-05-29T07:01:35;1.75;;;0.82;;
12990;SDS011;6560;57.692;11.958;2023-05-29T07:04:01;1.30;;;0.93;;
12990;SDS011;6560;57.692;11.958;2023-05-29T07:06:26;3.63;;;0.85;;
12990;SDS011;6560;57.692;11.958;2023-05-29T07:08:52;1.25;;;0.90;;
12990;SDS011;6560;57.692;11.958;2023-05-29T07:11:17;3.08;;;1.00;;
12990;SDS011;6560;57.692;11.958;2023-05-29T07:13:43;1.42;;;0.80;;
12990;SDS011;6560;57.692;11.958;2023-05-29T07:16:08;2.10;;;0.98;;
12990;SDS011;6560;57.692;11.958;2023-05-29T07:18:34;1.95;;;1.05;;
12990;SDS011;6560;57.692;11.958;2023-05-29T07:20:59;2.13;;;0.93;;
12990;SDS011;6560;57.692;11.958;2023-05-29T07:23:26;2.47;;;1.25;;
12990;SDS011;6560;57.692;11.958;2023-05-29T07:25:51;2.00;;;0.90;;
12990;SDS011;6560;57.692;11.958;2023-05-29T07:28:17;2.90;;;1.17;;
12990;SDS011;6560;57.692;11.958;2023-05-29T07:30:47;2.28;;;1.05;;
12990;SDS011;6560;57.692;11.958;2023-05-29T07:33:12;3.03;;;1.35;;
12990;SDS011;6560;57.692;11.958;2023-05-29T07:35:41;2.47;;;1.17;;
12990;SDS011;6560;57.692;11.958;2023-05-29T07:38:14;1.90;;;1.30;;
12990;SDS011;6560;57.692;11.958;2023-05-29T07:40:40;2.00;;;1.27;;
12990;SDS011;6560;57.692;11.958;2023-05-29T07:43:28;1.75;;;0.90;;
12990;SDS011;6560;57.692;11.958;2023-05-29T07:45:54;3.70;;;1.25;;
12990;SDS011;6560;57.692;11.958;2023-05-29T07:48:19;3.70;;;1.13;;
12990;SDS011;6560;57.692;11.958;2023-05-29T07:50:45;3.13;;;1.10;;
12990;SDS011;6560;57.692;11.958;2023-05-29T07:53:11;2.70;;;1.10;;
12990;SDS011;6560;57.692;11.958;2023-05-29T07:55:37;3.08;;;1.13;;
12990;SDS011;6560;57.692;11.958;2023-05-29T07:58:09;2.25;;;0.75;;
12990;SDS011;6560;57.692;11.958;2023-05-29T08:00:36;2.58;;;0.77;;
12990;SDS011;6560;57.692;11.958;2023-05-29T08:03:03;1.83;;;1.00;;
12990;SDS011;6560;57.692;11.958;2023-05-29T08:05:29;8.07;;;1.40;;
12990;SDS011;6560;57.692;11.958;2023-05-29T08:07:56;1.25;;;0.80;;
12990;SDS011;6560;57.692;11.958;2023-05-29T08:10:21;1.60;;;0.90;;
12990;SDS011;6560;57.692;11.958;2023-05-29T08:12:47;0.80;;;0.80;;
12990;SDS011;6560;57.692;11.958;2023-05-29T08:15:14;4.00;;;1.15;;
12990;SDS011;6560;57.692;11.958;2023-05-29T08:17:40;1.08;;;0.93;;
12990;SDS011;6560;57.692;11.958;2023-05-29T08:20:06;1.52;;;1.17;;
12990;SDS011;6560;57.692;11.958;2023-05-29T08:22:32;2.88;;;1.10;;
12990;SDS011;6560;57.692;11.958;2023-05-29T08:24:59;3.58;;;1.40;;
12990;SDS011;6560;57.692;11.958;2023-05-29T08:27:24;4.80;;;1.20;;
12990;SDS011;6560;57.692;11.958;2023-05-29T08:29:50;4.63;;;1.48;;
12990;SDS011;6560;57.692;11.958;2023-05-29T08:32:16;3.90;;;1.10;;
12990;SDS011;6560;57.692;11.958;2023-05-29T08:34:44;5.10;;;1.67;;
12990;SDS011;6560;57.692;11.958;2023-05-29T08:37:10;4.57;;;1.10;;
12990;SDS011;6560;57.692;11.958;2023-05-29T08:39:36;5.13;;;1.30;;
12990;SDS011;6560;57.692;11.958;2023-05-29T08:42:07;2.05;;;1.00;;
12990;SDS011;6560;57.692;11.958;2023-05-29T08:44:48;3.78;;;1.52;;
12990;SDS011;6560;57.692;11.958;2023-05-29T08:47:19;3.88;;;1.42;;
12990;SDS011;6560;57.692;11.958;2023-05-29T08:49:50;4.63;;;1.45;;
12990;SDS011;6560;57.692;11.958;2023-05-29T08:52:33;3.95;;;1.15;;
12990;SDS011;6560;57.692;11.958;2023-05-29T08:55:10;4.50;;;1.10;;
12990;SDS011;6560;57.692;11.958;2023-05-29T08:57:56;2.75;;;1.38;;
12990;SDS011;6560;57.692;11.958;2023-05-29T09:00:21;3.92;;;1.10;;
12990;SDS011;6560;57.692;11.958;2023-05-29T09:02:53;2.63;;;0.93;;
12990;SDS011;6560;57.692;11.958;2023-05-29T09:05:22;2.85;;;1.42;;
12990;SDS011;6560;57.692;11.958;2023-05-29T09:07:48;1.10;;;0.80;;
12990;SDS011;6560;57.692;11.958;2023-05-29T09:10:14;4.20;;;1.10;;
12990;SDS011;6560;57.692;11.958;2023-05-29T09:12:40;4.18;;;1.27;;
12990;SDS011;6560;57.692;11.958;2023-05-29T09:15:16;2.50;;;1.20;;
12990;SDS011;6560;57.692;11.958;2023-05-29T09:17:52;5.18;;;1.30;;
12990;SDS011;6560;57.692;11.958;2023-05-29T09:20:20;2.78;;;1.23;;
12990;SDS011;6560;57.692;11.958;2023-05-29T09:25:25;5.55;;;1.30;;
12990;SDS011;6560;57.692;11.958;2023-05-29T09:27:59;3.10;;;1.10;;
12990;SDS011;6560;57.692;11.958;2023-05-29T09:30:31;1.60;;;1.33;;
12990;SDS011;6560;57.692;11.958;2023-05-29T09:33:09;2.08;;;1.00;;
12990;SDS011;6560;57.692;11.958;2023-05-29T09:35:37;3.22;;;1.42;;
12990;SDS011;6560;57.692;11.958;2023-05-29T09:38:13;1.40;;;1.20;;
12990;SDS011;6560;57.692;11.958;2023-05-29T09:40:42;3.10;;;1.40;;
12990;SDS011;6560;57.692;11.958;2023-05-29T09:43:18;1.50;;;1.05;;
12990;SDS011;6560;57.692;11.958;2023-05-29T09:45:49;1.10;;;0.82;;
12990;SDS011;6560;57.692;11.958;2023-05-29T09:48:16;1.15;;;1.05;;
12990;SDS011;6560;57.692;11.958;2023-05-29T09:50:43;2.00;;;1.20;;
12990;SDS011;6560;57.692;11.958;2023-05-29T09:53:21;3.17;;;1.25;;
12990;SDS011;6560;57.692;11.958;2023-05-29T09:55:49;2.53;;;0.95;;
12990;SDS011;6560;57.692;11.958;2023-05-29T09:58:19;1.65;;;1.20;;
12990;SDS011;6560;57.692;11.958;2023-05-29T10:00:49;1.58;;;0.88;;
12990;SDS011;6560;57.692;11.958;2023-05-29T10:03:16;2.33;;;0.90;;
12990;SDS011;6560;57.692;11.958;2023-05-29T10:05:43;3.53;;;1.20;;
12990;SDS011;6560;57.692;11.958;2023-05-29T10:08:26;2.30;;;0.80;;
12990;SDS011;6560;57.692;11.958;2023-05-29T10:13:31;2.22;;;1.05;;
12990;SDS011;6560;57.692;11.958;2023-05-29T10:16:01;2.45;;;0.85;;
12990;SDS011;6560;57.692;11.958;2023-05-29T10:18:32;1.73;;;0.95;;
12990;SDS011;6560;57.692;11.958;2023-05-29T10:21:02;1.23;;;1.00;;
12990;SDS011;6560;57.692;11.958;2023-05-29T10:23:29;1.50;;;1.08;;
12990;SDS011;6560;57.692;11.958;2023-05-29T10:26:00;1.00;;;0.90;;
12990;SDS011;6560;57.692;11.958;2023-05-29T10:28:37;3.88;;;1.33;;
12990;SDS011;6560;57.692;11.958;2023-05-29T10:31:09;5.75;;;0.95;;
12990;SDS011;6560;57.692;11.958;2023-05-29T10:36:19;1.42;;;1.20;;
12990;SDS011;6560;57.692;11.958;2023-05-29T10:38:49;3.25;;;1.40;;
12990;SDS011;6560;57.692;11.958;2023-05-29T10:46:32;1.42;;;1.08;;
12990;SDS011;6560;57.692;11.958;2023-05-29T10:49:17;1.55;;;1.35;;
12990;SDS011;6560;57.692;11.958;2023-05-29T10:51:42;2.53;;;1.50;;
12990;SDS011;6560;57.692;11.958;2023-05-29T10:54:08;1.98;;;1.50;;
12990;SDS011;6560;57.692;11.958;2023-05-29T10:56:34;3.63;;;1.23;;
12990;SDS011;6560;57.692;11.958;2023-05-29T10:59:00;4.00;;;1.50;;
12990;SDS011;6560;57.692;11.958;2023-05-29T11:01:27;2.42;;;1.70;;
12990;SDS011;6560;57.692;11.958;2023-05-29T11:03:54;2.05;;;1.50;;
12990;SDS011;6560;57.692;11.958;2023-05-29T11:06:51;1.50;;;1.25;;
12990;SDS011;6560;57.692;11.958;2023-05-29T11:15:02;2.70;;;1.85;;
12990;SDS011;6560;57.692;11.958;2023-05-29T11:20:08;1.25;;;1.08;;
12990;SDS011;6560;57.692;11.958;2023-05-29T11:25:41;2.10;;;1.67;;
12990;SDS011;6560;57.692;11.958;2023-05-29T11:28:09;4.32;;;1.55;;
12990;SDS011;6560;57.692;11.958;2023-05-29T11:30:42;1.25;;;0.90;;
12990;SDS011;6560;57.692;11.958;2023-05-29T11:33:32;4.65;;;1.90;;
12990;SDS011;6560;57.692;11.958;2023-05-29T11:36:00;2.30;;;1.42;;
12990;SDS011;6560;57.692;11.958;2023-05-29T11:38:28;2.72;;;1.48;;
12990;SDS011;6560;57.692;11.958;2023-05-29T11:40:54;3.58;;;1.95;;
12990;SDS011;6560;57.692;11.958;2023-05-29T11:43:20;2.88;;;1.95;;
12990;SDS011;6560;57.692;11.958;2023-05-29T11:45:46;4.72;;;2.40;;
12990;SDS011;6560;57.692;11.958;2023-05-29T11:48:11;4.72;;;2.00;;
12990;SDS011;6560;57.692;11.958;2023-05-29T11:50:37;3.10;;;1.55;;
12990;SDS011;6560;57.692;11.958;2023-05-29T11:53:02;2.63;;;1.65;;
12990;SDS011;6560;57.692;11.958;2023-05-29T11:55:32;3.08;;;2.00;;
12990;SDS011;6560;57.692;11.958;2023-05-29T11:57:59;2.60;;;1.23;;
12990;SDS011;6560;57.692;11.958;2023-05-29T12:00:26;2.72;;;1.38;;
12990;SDS011;6560;57.692;11.958;2023-05-29T12:02:57;2.40;;;1.65;;
12990;SDS011;6560;57.692;11.958;2023-05-29T12:05:28;1.63;;;1.40;;
12990;SDS011;6560;57.692;11.958;2023-05-29T12:07:54;2.78;;;1.48;;
12990;SDS011;6560;57.692;11.958;2023-05-29T12:10:26;2.17;;;1.45;;
12990;SDS011;6560;57.692;11.958;2023-05-29T12:12:56;1.30;;;1.15;;
12990;SDS011;6560;57.692;11.958;2023-05-29T12:15:23;1.23;;;1.13;;
12990;SDS011;6560;57.692;11.958;2023-05-29T12:17:49;4.38;;;1.33;;
12990;SDS011;6560;57.692;11.958;2023-05-29T12:20:16;2.58;;;1.83;;
12990;SDS011;6560;57.692;11.958;2023-05-29T12:22:43;3.22;;;1.40;;
12990;SDS011;6560;57.692;11.958;2023-05-29T12:25:16;1.92;;;1.15;;
12990;SDS011;6560;57.692;11.958;2023-05-29T12:27:43;2.10;;;1.10;;
12990;SDS011;6560;57.692;11.958;2023-05-29T12:30:20;1.38;;;0.95;;
12990;SDS011;6560;57.692;11.958;2023-05-29T12:32:47;2.75;;;1.23;;
12990;SDS011;6560;57.692;11.958;2023-05-29T12:40:20;2.80;;;0.70;;
12990;SDS011;6560;57.692;11.958;2023-05-29T12:42:57;3.33;;;1.50;;
12990;SDS011;6560;57.692;11.958;2023-05-29T12:45:27;3.35;;;0.93;;
12990;SDS011;6560;57.692;11.958;2023-05-29T12:48:12;2.70;;;1.58;;
12990;SDS011;6560;57.692;11.958;2023-05-29T12:50:38;2.13;;;0.85;;
12990;SDS011;6560;57.692;11.958;2023-05-29T12:53:05;1.48;;;0.95;;
12990;SDS011;6560;57.692;11.958;2023-05-29T12:55:32;1.58;;;1.48;;
12990;SDS011;6560;57.692;11.958;2023-05-29T12:58:02;2.85;;;1.40;;
12990;SDS011;6560;57.692;11.958;2023-05-29T13:00:28;2.40;;;1.20;;
12990;SDS011;6560;57.692;11.958;2023-05-29T13:02:54;1.70;;;1.10;;
12990;SDS011;6560;57.692;11.958;2023-05-29T13:05:19;1.48;;;1.00;;
12990;SDS011;6560;57.692;11.958;2023-05-29T13:07:47;1.88;;;1.38;;
12990;SDS011;6560;57.692;11.958;2023-05-29T13:10:14;4.15;;;1.52;;
12990;SDS011;6560;57.692;11.958;2023-05-29T13:12:40;4.93;;;1.60;;
12990;SDS011;6560;57.692;11.958;2023-05-29T13:15:06;2.15;;;1.25;;
12990;SDS011;6560;57.692;11.958;2023-05-29T13:17:32;2.72;;;1.38;;
12990;SDS011;6560;57.692;11.958;2023-05-29T13:19:59;3.70;;;1.95;;
12990;SDS011;6560;57.692;11.958;2023-05-29T13:22:25;1.67;;;1.40;;
12990;SDS011;6560;57.692;11.958;2023-05-29T13:24:56;2.50;;;1.17;;
12990;SDS011;6560;57.692;11.958;2023-05-29T13:27:23;1.63;;;1.02;;
12990;SDS011;6560;57.692;11.958;2023-05-29T13:29:49;3.15;;;1.30;;
12990;SDS011;6560;57.692;11.958;2023-05-29T13:32:14;2.95;;;1.10;;
12990;SDS011;6560;57.692;11.958;2023-05-29T13:34:40;6.97;;;1.48;;
12990;SDS011;6560;57.692;11.958;2023-05-29T13:37:07;3.10;;;1.67;;
12990;SDS011;6560;57.692;11.958;2023-05-29T13:39:32;2.60;;;1.25;;
12990;SDS011;6560;57.692;11.958;2023-05-29T13:41:58;1.75;;;1.25;;
12990;SDS011;6560;57.692;11.958;2023-05-29T13:44:23;2.13;;;1.23;;
12990;SDS011;6560;57.692;11.958;2023-05-29T13:46:49;2.80;;;1.40;;
12990;SDS011;6560;57.692;11.958;2023-05-29T13:49:15;6.20;;;1.30;;
12990;SDS011;6560;57.692;11.958;2023-05-29T13:51:41;3.08;;;1.60;;
12990;SDS011;6560;57.692;11.958;2023-05-29T13:54:07;3.15;;;1.10;;
12990;SDS011;6560;57.692;11.958;2023-05-29T13:56:32;1.85;;;1.70;;
12990;SDS011;6560;57.692;11.958;2023-05-29T13:58:58;1.60;;;1.50;;
12990;SDS011;6560;57.692;11.958;2023-05-29T14:01:30;3.40;;;1.27;;
12990;SDS011;6560;57.692;11.958;2023-05-29T14:03:56;3.45;;;1.38;;
12990;SDS011;6560;57.692;11.958;2023-05-29T14:06:21;1.77;;;1.00;;
12990;SDS011;6560;57.692;11.958;2023-05-29T14:08:47;1.92;;;1.27;;
12990;SDS011;6560;57.692;11.958;2023-05-29T14:11:13;3.88;;;1.38;;
12990;SDS011;6560;57.692;11.958;2023-05-29T14:13:38;4.47;;;1.70;;
12990;SDS011;6560;57.692;11.958;2023-05-29T14:16:04;2.58;;;1.50;;
12990;SDS011;6560;57.692;11.958;2023-05-29T14:18:29;1.75;;;1.52;;
12990;SDS011;6560;57.692;11.958;2023-05-29T14:20:55;5.75;;;1.83;;
12990;SDS011;6560;57.692;11.958;2023-05-29T14:23:21;2.20;;;1.27;;
12990;SDS011;6560;57.692;11.958;2023-05-29T14:25:46;2.42;;;1.55;;
12990;SDS011;6560;57.692;11.958;2023-05-29T14:28:12;4.45;;;1.48;;
12990;SDS011;6560;57.692;11.958;2023-05-29T14:30:37;1.80;;;1.25;;
12990;SDS011;6560;57.692;11.958;2023-05-29T14:33:03;2.50;;;1.63;;
12990;SDS011;6560;57.692;11.958;2023-05-29T14:35:29;2.42;;;1.23;;
12990;SDS011;6560;57.692;11.958;2023-05-29T14:37:54;3.40;;;1.27;;
12990;SDS011;6560;57.692;11.958;2023-05-29T14:40:21;3.45;;;1.40;;
12990;SDS011;6560;57.692;11.958;2023-05-29T14:42:46;3.25;;;1.77;;
12990;SDS011;6560;57.692;11.958;2023-05-29T14:45:12;2.90;;;1.38;;
12990;SDS011;6560;57.692;11.958;2023-05-29T14:47:39;3.05;;;1.73;;
12990;SDS011;6560;57.692;11.958;2023-05-29T14:50:07;3.83;;;1.67;;
12990;SDS011;6560;57.692;11.958;2023-05-29T14:52:33;3.60;;;2.17;;
12990;SDS011;6560;57.692;11.958;2023-05-29T14:55:01;2.53;;;1.65;;
12990;SDS011;6560;57.692;11.958;2023-05-29T14:57:27;4.00;;;2.30;;
12990;SDS011;6560;57.692;11.958;2023-05-29T14:59:55;4.07;;;1.73;;
12990;SDS011;6560;57.692;11.958;2023-05-29T15:02:20;4.15;;;1.77;;
12990;SDS011;6560;57.692;11.958;2023-05-29T15:04:46;5.68;;;2.08;;
12990;SDS011;6560;57.692;11.958;2023-05-29T15:07:11;5.25;;;2.30;;
12990;SDS011;6560;57.692;11.958;2023-05-29T15:09:37;4.10;;;2.30;;
12990;SDS011;6560;57.692;11.958;2023-05-29T15:12:02;4.50;;;2.05;;
12990;SDS011;6560;57.692;11.958;2023-05-29T15:14:28;5.53;;;1.73;;
12990;SDS011;6560;57.692;11.958;2023-05-29T15:16:53;4.35;;;1.38;;
12990;SDS011;6560;57.692;11.958;2023-05-29T15:19:20;3.08;;;1.15;;
12990;SDS011;6560;57.692;11.958;2023-05-29T15:21:45;6.70;;;2.42;;
12990;SDS011;6560;57.692;11.958;2023-05-29T15:24:11;1.85;;;1.00;;
12990;SDS011;6560;57.692;11.958;2023-05-29T15:26:36;4.25;;;1.55;;